createdAt,value
2023-01-20T00:01:47.721Z,82.47
2023-01-20T00:04:19.009Z,82.58
2023-01-20T00:06:47.569Z,82.88
2023-01-20T00:09:17.575Z,83.22
2023-01-20T00:11:46.140Z,83.30
2023-01-20T00:14:15.714Z,83.17
2023-01-20T00:16:43.841Z,83.22
2023-01-20T00:19:14.417Z,83.14
2023-01-20T00:21:42.909Z,82.99
2023-01-20T00:24:11.063Z,82.63
2023-01-20T00:26:39.193Z,82.68
2023-01-20T00:29:07.468Z,82.84
2023-01-20T00:31:37.166Z,82.68
2023-01-20T00:34:05.617Z,82.35
2023-01-20T00:36:35.191Z,82.00
2023-01-20T00:39:04.261Z,81.86
2023-01-20T00:41:32.629Z,81.67
2023-01-20T00:44:01.284Z,81.62
2023-01-20T00:46:29.478Z,81.89
2023-01-20T00:48:59.132Z,82.17
2023-01-20T00:51:27.275Z,82.20
2023-01-20T00:53:55.411Z,82.42
2023-01-20T00:56:23.492Z,82.63
2023-01-20T00:58:51.604Z,82.73
2023-01-20T01:01:19.839Z,82.41
2023-01-20T01:03:48.137Z,82.26
2023-01-20T01:06:18.830Z,81.53
2023-01-20T01:08:47.073Z,81.59
2023-01-20T01:11:15.302Z,81.66
2023-01-20T01:13:43.896Z,81.28
2023-01-20T01:16:14.060Z,81.44
2023-01-20T01:18:43.057Z,81.60
2023-01-20T01:21:15.336Z,81.72
2023-01-20T01:23:45.576Z,81.49
2023-01-20T01:26:14.387Z,81.77
2023-01-20T01:28:42.769Z,82.17
2023-01-20T01:31:11.410Z,82.31
2023-01-20T01:33:39.694Z,82.24
2023-01-20T01:36:12.043Z,82.28
2023-01-20T01:38:40.204Z,82.26
2023-01-20T01:41:12.455Z,82.27
2023-01-20T01:43:41.767Z,82.48
2023-01-20T01:46:09.876Z,82.52
2023-01-20T01:48:44.657Z,82.73
2023-01-20T01:51:20.577Z,82.80
2023-01-20T01:53:54.727Z,82.37
2023-01-20T01:56:27.672Z,81.92
2023-01-20T01:59:01.291Z,81.54
2023-01-20T02:01:32.929Z,81.45
2023-01-20T02:04:06.725Z,81.54
2023-01-20T02:06:39.213Z,82.05
2023-01-20T02:09:07.837Z,82.44
2023-01-20T02:11:45.273Z,82.65
2023-01-20T02:14:13.555Z,82.82
2023-01-20T02:16:58.290Z,82.96
2023-01-20T02:20:14.633Z,83.04
2023-01-20T02:22:50.429Z,82.88
2023-01-20T02:26:18.180Z,82.23
2023-01-20T02:29:15.987Z,82.27
2023-01-20T02:32:22.486Z,81.91
2023-01-20T02:35:01.796Z,81.79
2023-01-20T02:37:38.163Z,81.68
2023-01-20T02:40:23.536Z,81.68
2023-01-20T02:43:02.630Z,81.74
2023-01-20T02:45:43.687Z,81.66
2023-01-20T02:48:23.052Z,81.42
2023-01-20T02:51:03.323Z,80.80
2023-01-20T02:53:39.180Z,80.67
2023-01-20T02:56:10.708Z,80.73
2023-01-20T02:58:48.402Z,80.67
2023-01-20T03:01:23.820Z,80.39
2023-01-20T03:03:58.979Z,80.71
2023-01-20T03:06:33.028Z,80.97
2023-01-20T03:09:06.650Z,81.01
2023-01-20T03:11:42.183Z,81.03
2023-01-20T03:14:14.864Z,81.04
2023-01-20T03:16:44.056Z,80.78
2023-01-20T03:19:13.575Z,80.96
2023-01-20T03:21:42.140Z,81.21
2023-01-20T03:24:10.613Z,81.00
2023-01-20T03:26:39.980Z,80.58
2023-01-20T03:29:11.360Z,80.23
2023-01-20T03:31:44.688Z,80.22
2023-01-20T03:34:20.399Z,80.16
2023-01-20T03:36:51.124Z,80.12
2023-01-20T03:39:20.104Z,79.84
2023-01-20T03:42:07.171Z,79.97
2023-01-20T03:45:01.553Z,80.35
2023-01-20T03:47:55.498Z,80.58
2023-01-20T03:50:37.358Z,80.67
2023-01-20T03:53:19.805Z,80.48
2023-01-20T03:55:57.277Z,80.41
2023-01-20T03:58:30.951Z,79.96
2023-01-20T04:01:18.167Z,79.60
2023-01-20T04:03:50.711Z,79.38
2023-01-20T04:06:24.637Z,79.21
2023-01-20T04:08:57.438Z,78.71
2023-01-20T04:11:26.064Z,78.88
2023-01-20T04:13:54.393Z,78.53
2023-01-20T04:16:24.566Z,78.73
2023-01-20T04:18:53.958Z,78.82
2023-01-20T04:21:32.393Z,78.80
2023-01-20T04:24:08.285Z,78.98
2023-01-20T04:26:36.448Z,78.98
2023-01-20T04:29:11.062Z,79.19
2023-01-20T04:31:40.225Z,78.92
2023-01-20T04:34:13.639Z,78.50
2023-01-20T04:36:43.754Z,78.00
2023-01-20T04:39:11.881Z,78.08
2023-01-20T04:41:40.028Z,78.34
2023-01-20T04:44:08.164Z,78.81
2023-01-20T04:46:37.160Z,79.16
2023-01-20T04:49:05.388Z,79.54
2023-01-20T04:51:34.136Z,79.57
2023-01-20T04:54:03.600Z,79.81
2023-01-20T04:56:31.867Z,80.02
2023-01-20T04:59:00.333Z,79.72
2023-01-20T05:01:28.538Z,80.01
2023-01-20T05:03:56.729Z,80.27
2023-01-20T05:06:24.878Z,80.34
2023-01-20T05:08:53.021Z,80.53
2023-01-20T05:11:22.488Z,80.38
2023-01-20T05:13:50.593Z,80.28
2023-01-20T05:16:23.785Z,80.28
2023-01-20T05:18:52.014Z,80.19
2023-01-20T05:21:20.196Z,80.34
2023-01-20T05:23:48.414Z,80.34
2023-01-20T05:26:16.865Z,80.44
2023-01-20T05:28:46.591Z,80.63
2023-01-20T05:31:14.936Z,80.28
2023-01-20T05:33:43.369Z,80.34
2023-01-20T05:36:12.630Z,80.76
2023-01-20T05:38:40.796Z,80.57
2023-01-20T05:41:10.981Z,80.54
2023-01-20T05:43:39.507Z,80.64
2023-01-20T05:46:09.158Z,80.40
2023-01-20T05:48:37.266Z,80.04
2023-01-20T05:51:05.599Z,80.46
2023-01-20T05:53:33.701Z,80.81
2023-01-20T05:56:02.586Z,80.90
2023-01-20T05:58:31.649Z,80.76
2023-01-20T06:01:08.223Z,80.24
2023-01-20T06:03:36.366Z,80.07
2023-01-20T06:06:07.431Z,79.58
2023-01-20T06:08:36.202Z,80.13
2023-01-20T06:11:04.375Z,80.68
2023-01-20T06:13:32.492Z,80.84
2023-01-20T06:16:00.597Z,80.16
2023-01-20T06:18:30.477Z,80.11
2023-01-20T06:20:59.532Z,80.38
2023-01-20T06:23:28.536Z,80.28
2023-01-20T06:26:01.474Z,80.27
2023-01-20T06:28:30.312Z,80.52
2023-01-20T06:31:07.101Z,80.84
2023-01-20T06:33:36.825Z,80.74
2023-01-20T06:36:06.517Z,80.19
2023-01-20T06:38:36.622Z,79.54
2023-01-20T06:41:07.447Z,79.67
2023-01-20T06:43:39.943Z,79.84
2023-01-20T06:46:13.033Z,79.91
2023-01-20T06:48:44.199Z,79.56
2023-01-20T06:51:15.297Z,79.62
2023-01-20T06:53:43.847Z,79.59
2023-01-20T06:56:13.416Z,79.48
2023-01-20T06:58:42.377Z,78.99
2023-01-20T07:01:14.717Z,79.19
2023-01-20T07:03:45.280Z,79.54
2023-01-20T07:06:20.887Z,79.47
2023-01-20T07:08:49.197Z,79.26
2023-01-20T07:11:17.692Z,79.30
2023-01-20T07:13:45.991Z,79.39
2023-01-20T07:16:15.971Z,79.45
2023-01-20T07:18:49.935Z,79.37
2023-01-20T07:21:18.914Z,79.10
2023-01-20T07:23:47.530Z,79.11
2023-01-20T07:26:18.233Z,79.26
2023-01-20T07:28:47.083Z,79.56
2023-01-20T07:31:17.453Z,79.44
2023-01-20T07:33:47.313Z,79.91
2023-01-20T07:36:17.249Z,80.25
2023-01-20T07:38:49.544Z,80.14
2023-01-20T07:41:19.761Z,79.25
2023-01-20T07:43:51.048Z,78.90
2023-01-20T07:46:20.616Z,78.76
2023-01-20T07:48:50.277Z,78.56
2023-01-20T07:51:18.731Z,78.50
2023-01-20T07:53:49.318Z,77.97
2023-01-20T07:56:19.999Z,77.65
2023-01-20T07:58:50.498Z,77.78
2023-01-20T08:01:21.399Z,77.67
2023-01-20T08:03:51.519Z,77.16
2023-01-20T08:06:22.744Z,77.28
2023-01-20T08:08:51.517Z,76.67
2023-01-20T08:11:22.274Z,76.58
2023-01-20T08:13:50.593Z,76.56
2023-01-20T08:16:19.787Z,76.49
2023-01-20T08:18:50.027Z,76.23
2023-01-20T08:21:22.382Z,76.62
2023-01-20T08:23:51.292Z,75.84
2023-01-20T08:26:19.773Z,76.17
2023-01-20T08:28:48.481Z,76.33
2023-01-20T08:31:19.567Z,76.33
2023-01-20T08:33:48.239Z,76.61
2023-01-20T08:36:22.134Z,76.63
2023-01-20T08:38:50.926Z,77.23
2023-01-20T08:41:22.589Z,77.61
2023-01-20T08:43:51.540Z,77.72
2023-01-20T08:46:22.652Z,78.14
2023-01-20T08:48:52.610Z,77.95
2023-01-20T08:51:25.604Z,77.83
2023-01-20T08:53:53.942Z,77.86
2023-01-20T08:56:22.546Z,77.98
2023-01-20T08:58:51.550Z,78.15
2023-01-20T09:01:22.747Z,78.03
2023-01-20T09:04:04.301Z,77.29
2023-01-20T09:06:40.310Z,77.18
2023-01-20T09:09:08.810Z,76.89
2023-01-20T09:11:37.437Z,75.87
2023-01-20T09:14:05.578Z,75.18
2023-01-20T09:16:33.895Z,73.07
2023-01-20T09:19:03.130Z,72.94
2023-01-20T09:21:31.436Z,71.64
2023-01-20T09:24:01.533Z,71.50
2023-01-20T09:26:38.672Z,70.99
2023-01-20T09:29:11.335Z,70.50
2023-01-20T09:31:44.314Z,69.37
2023-01-20T09:34:16.333Z,68.52
2023-01-20T09:36:44.478Z,68.83
2023-01-20T09:39:32.911Z,68.95
2023-01-20T09:42:47.130Z,68.55
2023-01-20T09:45:26.683Z,66.98
2023-01-20T09:48:14.951Z,67.57
2023-01-20T09:51:09.733Z,67.76
2023-01-20T09:53:55.451Z,67.73
2023-01-20T09:56:30.179Z,67.34
2023-01-20T09:59:07.512Z,67.38
2023-01-20T10:01:43.075Z,66.42
2023-01-20T10:04:18.219Z,66.56
2023-01-20T10:06:52.431Z,66.98
2023-01-20T10:09:33.769Z,66.98
2023-01-20T10:12:13.762Z,66.71
2023-01-20T10:14:46.764Z,66.72
2023-01-20T10:17:25.219Z,65.57
2023-01-20T10:20:03.818Z,65.92
2023-01-20T10:22:41.757Z,66.19
2023-01-20T10:25:18.527Z,66.74
2023-01-20T10:27:54.424Z,66.31
2023-01-20T10:30:28.287Z,65.30
2023-01-20T10:33:06.755Z,64.85
2023-01-20T10:35:40.172Z,64.44
2023-01-20T10:38:19.179Z,64.76
2023-01-20T10:40:56.090Z,64.05
2023-01-20T10:43:26.679Z,63.96
2023-01-20T10:46:24.244Z,63.42
2023-01-20T10:49:30.202Z,63.75
2023-01-20T10:52:23.171Z,61.46
2023-01-20T10:55:07.411Z,62.58
2023-01-20T10:57:38.188Z,62.51
2023-01-20T11:00:20.679Z,61.64
2023-01-20T11:02:49.287Z,61.95
2023-01-20T11:05:22.038Z,62.53
2023-01-20T11:07:53.635Z,62.65
2023-01-20T11:10:27.056Z,63.23
2023-01-20T11:12:59.573Z,63.46
2023-01-20T11:15:33.798Z,62.73
2023-01-20T11:18:30.625Z,62.04
2023-01-20T11:21:03.627Z,61.73
2023-01-20T11:23:48.547Z,62.05
2023-01-20T11:26:25.052Z,61.83
2023-01-20T11:28:59.062Z,62.29
2023-01-20T11:31:42.253Z,62.32
2023-01-20T11:34:27.483Z,62.37
2023-01-20T11:37:21.694Z,62.41
2023-01-20T11:40:03.687Z,62.59
2023-01-20T11:42:44.948Z,61.36
2023-01-20T11:45:28.222Z,61.71
2023-01-20T11:48:06.259Z,61.71
2023-01-20T11:50:37.545Z,61.55
2023-01-20T11:53:21.960Z,61.79
2023-01-20T11:55:54.940Z,62.18
2023-01-20T11:58:26.700Z,62.45
2023-01-20T12:01:03.268Z,62.16
2023-01-20T12:04:10.432Z,61.08
2023-01-20T12:06:52.900Z,61.90
2023-01-20T12:09:27.308Z,62.32
2023-01-20T12:12:00.901Z,62.16
2023-01-20T12:14:34.781Z,62.72
2023-01-20T12:17:42.539Z,62.34
2023-01-20T12:20:24.477Z,62.77
2023-01-20T12:23:22.036Z,62.00
2023-01-20T12:25:57.638Z,62.66
2023-01-20T12:28:35.332Z,62.25
2023-01-20T12:31:05.481Z,61.57
2023-01-20T12:33:38.403Z,61.88
2023-01-20T12:36:41.574Z,61.96
2023-01-20T12:39:37.362Z,61.76
2023-01-20T12:42:53.688Z,61.46
2023-01-20T12:45:48.416Z,60.07
2023-01-20T12:48:36.761Z,60.03
2023-01-20T12:51:34.527Z,60.65
2023-01-20T12:54:48.275Z,60.48
2023-01-20T12:57:34.025Z,61.31
2023-01-20T13:00:33.546Z,60.92
2023-01-20T13:03:49.115Z,60.68
2023-01-20T13:06:55.181Z,60.23
2023-01-20T13:10:01.211Z,59.90
2023-01-20T13:12:45.452Z,60.06
2023-01-20T13:15:22.515Z,60.47
2023-01-20T13:18:24.688Z,60.58
2023-01-20T13:20:55.433Z,61.57
2023-01-20T13:23:29.201Z,62.01
2023-01-20T13:25:59.509Z,62.02
2023-01-20T13:28:30.864Z,61.63
2023-01-20T13:31:01.493Z,61.83
2023-01-20T13:33:38.969Z,62.58
2023-01-20T13:36:19.247Z,62.47
2023-01-20T13:38:51.093Z,62.91
2023-01-20T13:41:50.357Z,63.41
2023-01-20T13:44:36.010Z,61.43
2023-01-20T13:47:05.008Z,62.59
2023-01-20T13:49:53.129Z,61.19
2023-01-20T13:56:26.707Z,62.50
2023-01-20T13:58:55.931Z,62.57
2023-01-20T14:02:45.216Z,61.85
2023-01-20T14:05:32.977Z,62.75
2023-01-20T14:08:02.036Z,62.98
2023-01-20T14:10:30.510Z,63.62
2023-01-20T14:12:59.996Z,63.16
2023-01-20T14:15:39.848Z,63.76
2023-01-20T14:18:17.603Z,64.07
2023-01-20T14:21:04.090Z,63.89
2023-01-20T14:23:37.131Z,64.15
2023-01-20T14:26:11.281Z,64.24
2023-01-20T14:28:49.964Z,64.21
2023-01-20T14:31:23.264Z,64.46
2023-01-20T14:34:01.461Z,64.21
2023-01-20T14:36:35.545Z,64.27
2023-01-20T14:39:07.066Z,64.69
2023-01-20T14:41:46.961Z,64.89
2023-01-20T14:44:21.663Z,63.73
2023-01-20T14:46:52.972Z,61.96
2023-01-20T14:49:27.749Z,63.46
2023-01-20T14:51:56.416Z,64.02
2023-01-20T14:54:42.551Z,64.16
2023-01-20T14:57:27.212Z,64.06
2023-01-20T15:00:21.269Z,62.30
2023-01-20T15:03:05.243Z,62.43
2023-01-20T15:05:41.314Z,63.09
2023-01-20T15:08:26.431Z,61.57
2023-01-20T15:11:25.351Z,62.29
2023-01-20T15:14:13.545Z,63.20
2023-01-20T15:16:50.966Z,62.72
2023-01-20T15:19:46.075Z,63.05
2023-01-20T15:22:28.543Z,63.62
2023-01-20T15:24:56.725Z,63.12
2023-01-20T15:27:31.461Z,63.59
2023-01-20T15:30:14.127Z,64.34
2023-01-20T15:32:43.748Z,64.57
2023-01-20T15:35:16.611Z,65.29
2023-01-20T15:37:45.145Z,66.15
2023-01-20T15:40:19.500Z,66.74
2023-01-20T15:42:47.979Z,67.17
2023-01-20T15:45:18.301Z,67.47
2023-01-20T15:47:49.073Z,66.91
2023-01-20T15:50:21.299Z,67.80
2023-01-20T15:52:50.366Z,68.54
2023-01-20T15:55:20.345Z,68.66
2023-01-20T15:57:52.963Z,69.13
2023-01-20T16:00:24.244Z,69.62
2023-01-20T16:02:53.908Z,69.83
2023-01-20T16:05:22.171Z,69.41
2023-01-20T16:07:50.375Z,69.20
2023-01-20T16:10:20.663Z,69.50
2023-01-20T16:12:49.204Z,70.01
2023-01-20T16:15:19.289Z,70.62
2023-01-20T16:17:47.693Z,70.89
2023-01-20T16:20:24.127Z,70.94
2023-01-20T16:22:52.842Z,69.17
2023-01-20T16:25:22.163Z,69.43
2023-01-20T16:27:50.491Z,70.18
2023-01-20T16:30:22.758Z,70.68
2023-01-20T16:32:51.604Z,70.35
2023-01-20T16:35:23.496Z,70.33
2023-01-20T16:37:52.296Z,70.88
2023-01-20T16:40:24.518Z,71.48
2023-01-20T16:42:56.774Z,71.60
2023-01-20T16:45:29.885Z,70.78
2023-01-20T16:47:58.325Z,70.83
2023-01-20T16:50:28.483Z,71.34
2023-01-20T16:52:57.224Z,71.66
2023-01-20T16:55:25.815Z,71.01
2023-01-20T16:57:54.153Z,71.73
2023-01-20T17:00:23.573Z,72.52
2023-01-20T17:02:52.929Z,72.64
2023-01-20T17:05:25.472Z,73.27
2023-01-20T17:07:57.201Z,73.42
2023-01-20T17:10:26.974Z,73.73
2023-01-20T17:12:56.798Z,73.99
2023-01-20T17:15:26.452Z,74.37
2023-01-20T17:17:58.208Z,74.57
2023-01-20T17:20:27.865Z,74.80
2023-01-20T17:22:57.399Z,74.50
2023-01-20T17:25:25.922Z,74.75
2023-01-20T17:27:54.040Z,74.78
2023-01-20T17:30:23.982Z,75.24
2023-01-20T17:32:54.118Z,75.89
2023-01-20T17:35:22.516Z,75.86
2023-01-20T17:37:50.625Z,76.19
2023-01-20T17:40:20.896Z,75.94
2023-01-20T17:42:49.016Z,76.18
2023-01-20T17:45:18.531Z,76.85
2023-01-20T17:47:46.730Z,77.51
2023-01-20T17:50:15.480Z,78.20
2023-01-20T17:52:43.823Z,78.61
2023-01-20T17:55:12.167Z,79.02
2023-01-20T17:57:41.672Z,79.14
2023-01-20T18:00:12.013Z,79.21
2023-01-20T18:02:40.259Z,79.54
2023-01-20T18:05:08.926Z,79.49
2023-01-20T18:07:38.110Z,79.19
2023-01-20T18:10:06.858Z,78.88
2023-01-20T18:12:35.091Z,78.71
2023-01-20T18:15:05.280Z,78.82
2023-01-20T18:17:34.168Z,79.31
2023-01-20T18:20:02.324Z,79.80
2023-01-20T18:22:30.452Z,79.75
2023-01-20T18:24:58.645Z,79.38
2023-01-20T18:27:26.749Z,79.49
2023-01-20T18:29:54.841Z,78.85
2023-01-20T18:32:24.377Z,78.44
2023-01-20T18:34:52.513Z,78.67
2023-01-20T18:37:20.647Z,79.10
2023-01-20T18:39:48.724Z,78.71
2023-01-20T18:42:16.868Z,78.10
2023-01-20T18:44:44.993Z,77.76
2023-01-20T18:47:13.143Z,77.27
2023-01-20T18:49:42.627Z,76.79
2023-01-20T18:52:10.837Z,76.65
2023-01-20T18:54:39.142Z,76.69
2023-01-20T18:57:08.994Z,77.35
2023-01-20T18:59:37.550Z,77.48
2023-01-20T19:02:05.784Z,77.31
2023-01-20T19:04:35.616Z,77.35
2023-01-20T19:07:05.922Z,76.70
2023-01-20T19:09:34.066Z,76.14
2023-01-20T19:12:02.194Z,75.67
2023-01-20T19:14:30.297Z,75.15
2023-01-20T19:16:58.465Z,75.29
2023-01-20T19:19:26.636Z,75.68
2023-01-20T19:21:54.752Z,76.14
2023-01-20T19:24:28.792Z,76.34
2023-01-20T19:26:57.977Z,76.26
2023-01-20T19:29:29.039Z,76.94
2023-01-20T19:31:57.716Z,76.87
2023-01-20T19:34:27.294Z,76.98
2023-01-20T19:36:55.580Z,77.15
2023-01-20T19:39:25.067Z,76.32
2023-01-20T19:41:53.372Z,75.08
2023-01-20T19:44:21.634Z,73.13
2023-01-20T19:46:49.831Z,73.99
2023-01-20T19:49:17.949Z,73.99
2023-01-20T19:51:46.089Z,73.69
2023-01-20T19:54:15.066Z,74.34
2023-01-20T19:56:44.582Z,73.75
2023-01-20T19:59:14.192Z,73.45
2023-01-20T20:01:42.590Z,73.60
2023-01-20T20:04:13.365Z,73.52
2023-01-20T20:06:47.840Z,73.99
2023-01-20T20:09:19.143Z,73.97
2023-01-20T20:11:49.596Z,74.08
2023-01-20T20:14:21.724Z,74.24
2023-01-20T20:16:51.138Z,74.64
2023-01-20T20:19:20.863Z,75.08
2023-01-20T20:21:49.841Z,75.35
2023-01-20T20:24:19.780Z,74.68
2023-01-20T20:26:49.720Z,75.14
2023-01-20T20:29:19.943Z,76.09
2023-01-20T20:31:48.700Z,76.34
2023-01-20T20:34:19.988Z,75.89
2023-01-20T20:36:48.438Z,75.17
2023-01-20T20:39:18.841Z,75.26
2023-01-20T20:41:48.811Z,76.34
2023-01-20T20:44:17.062Z,77.85
2023-01-20T20:46:45.314Z,78.15
2023-01-20T20:49:16.460Z,78.44
2023-01-20T20:51:44.783Z,79.17
2023-01-20T20:54:16.706Z,79.68
2023-01-20T20:56:45.651Z,79.93
2023-01-20T20:59:15.297Z,80.25
2023-01-20T21:01:43.632Z,80.73
2023-01-20T21:04:11.923Z,80.71
2023-01-20T21:06:40.073Z,80.58
2023-01-20T21:09:08.559Z,80.64
2023-01-20T21:11:38.443Z,81.37
2023-01-20T21:14:07.450Z,81.82
2023-01-20T21:16:37.956Z,81.94
2023-01-20T21:19:06.377Z,81.54
2023-01-20T21:21:35.036Z,80.48
2023-01-20T21:24:03.185Z,79.76
2023-01-20T21:26:31.466Z,79.12
2023-01-20T21:29:01.844Z,79.63
2023-01-20T21:31:31.456Z,80.13
2023-01-20T21:34:02.043Z,80.71
2023-01-20T21:36:33.910Z,81.52
2023-01-20T21:39:02.058Z,81.55
2023-01-20T21:41:30.234Z,81.08
2023-01-20T21:44:16.085Z,79.21
2023-01-20T21:46:44.265Z,79.33
2023-01-20T21:49:36.643Z,79.56
2023-01-20T21:52:22.550Z,80.17
2023-01-20T21:54:50.799Z,80.02
2023-01-20T21:57:18.915Z,80.58
2023-01-20T21:59:47.121Z,79.17
2023-01-20T22:02:16.297Z,78.49
2023-01-20T22:04:46.634Z,78.43
2023-01-20T22:07:16.562Z,78.80
2023-01-20T22:09:44.864Z,79.55
2023-01-20T22:12:13.631Z,79.68
2023-01-20T22:14:42.449Z,79.77
2023-01-20T22:17:13.080Z,79.55
2023-01-20T22:19:41.786Z,78.64
2023-01-20T22:22:13.488Z,78.49
2023-01-20T22:24:43.196Z,78.82
2023-01-20T22:27:11.310Z,78.84
2023-01-20T22:29:39.434Z,78.47
2023-01-20T22:32:07.586Z,77.66
2023-01-20T22:34:35.757Z,78.13
2023-01-20T22:37:03.865Z,78.69
2023-01-20T22:39:33.382Z,77.92
2023-01-20T22:42:01.481Z,78.66
2023-01-20T22:44:29.616Z,78.80
2023-01-20T22:46:57.772Z,78.16
2023-01-20T22:49:25.909Z,77.57
2023-01-20T22:51:56.387Z,77.14
2023-01-20T22:54:24.545Z,78.15
2023-01-20T22:56:54.031Z,78.39
2023-01-20T22:59:22.281Z,77.38
2023-01-20T23:01:50.498Z,77.01
2023-01-20T23:04:18.618Z,76.54
2023-01-20T23:06:46.720Z,77.42
2023-01-20T23:09:15.360Z,76.97
2023-01-20T23:11:43.652Z,76.88
2023-01-20T23:14:13.571Z,76.54
2023-01-20T23:16:42.502Z,75.83
2023-01-20T23:19:11.446Z,76.30
2023-01-20T23:21:39.659Z,77.39
2023-01-20T23:24:08.978Z,78.08
2023-01-20T23:26:37.117Z,77.97
2023-01-20T23:29:05.375Z,78.16
2023-01-20T23:31:35.204Z,77.63
2023-01-20T23:34:03.529Z,78.11
2023-01-20T23:36:31.638Z,78.80
2023-01-20T23:38:59.884Z,78.94
2023-01-20T23:41:28.060Z,79.06
2023-01-20T23:43:56.189Z,79.05
2023-01-20T23:46:24.293Z,79.37
2023-01-20T23:48:54.094Z,78.98
2023-01-20T23:51:22.577Z,78.59
2023-01-20T23:53:50.749Z,77.53
2023-01-20T23:56:21.958Z,78.17
2023-01-20T23:58:50.681Z,77.93
